Gokay K — TCHF — position and weather

sailwx.info

Track history (hours):
 
Tides and Currents Weather Stations Pressure Air Temp Water Temp Dewpoint Dewpoint Depression Visibility Wind Speed Wind Dir Waves Ship Positions

Gokay K

Last reported at 2014-Dec-17 01:16 UTC. Time now 2014-Dec-23 01:34 UTC.
Position N 45°47' E 031°10'.

Length 118 m; draft 7.2 m.

Type: Cargo ship. MMSI: 271000029.

Date/timePositionNaut miles runAvg speedWind from/ knotsBaromVisibWave heightAir tempDewpointWater temp
2014-Dec-17 01:16N 45°47' E 031°10'9 9.1
2014-Dec-17 00:18N 45°56' E 031°07'19 9.4
2014-Dec-16 22:19N 46°12' E 030°55'50 7.4
2014-Dec-16 15:34N 46°40' E 031°56'9 8.6
2014-Dec-16 14:34N 46°48' E 031°53'9 8.9
2014-Dec-16 13:34N 46°55' E 032°01'2 1.7
2014-Dec-16 12:32N 46°57' E 032°00'0 0.0
2014-Dec-16 06:32N 46°57' E 032°00'0 0.0
2014-Dec-16 05:32N 46°57' E 032°00'0 0.0
2014-Dec-16 04:30N 46°57' E 032°00'0 0.0
2014-Dec-16 03:32N 46°57' E 032°00'0 0.0
2014-Dec-16 02:32N 46°57' E 032°00'0 0.0
2014-Dec-16 01:05N 46°57' E 032°00'0 0.0
2014-Dec-16 00:31N 46°57' E 032°00'0 0.0
2014-Dec-15 23:32N 46°57' E 032°00'0 0.0
2014-Dec-15 22:32N 46°57' E 032°00'0 0.0
2014-Dec-15 21:32N 46°57' E 032°00'0 0.0
2014-Dec-15 20:32N 46°57' E 032°00'0 0.0
2014-Dec-15 19:32N 46°57' E 032°00'0 0.0
2014-Dec-15 18:32N 46°57' E 032°00'0 0.0
2014-Dec-15 17:32N 46°57' E 032°00'0 0.0
2014-Dec-15 16:32N 46°57' E 032°00'0 0.0
2014-Dec-15 15:32N 46°57' E 032°00'0 0.0
2014-Dec-15 14:32N 46°57' E 032°00'0 0.0
2014-Dec-15 13:32N 46°57' E 032°00'0 0.0
2014-Dec-15 12:32N 46°57' E 032°00'0 0.0
2014-Dec-15 11:32N 46°57' E 032°00'0 0.0
2014-Dec-15 10:32N 46°57' E 032°00'0 0.0
2014-Dec-15 09:32N 46°57' E 032°00'0 0.0
2014-Dec-15 08:32N 46°57' E 032°00'0 0.0
2014-Dec-15 07:32N 46°57' E 032°00'0 0.0
2014-Dec-15 06:32N 46°57' E 032°00'0 0.0
2014-Dec-15 05:32N 46°57' E 032°00'0 0.0
2014-Dec-15 04:32N 46°57' E 032°00'0 0.0
2014-Dec-15 03:32N 46°57' E 032°00'0 0.0
2014-Dec-15 02:32N 46°57' E 032°00'0 0.0
2014-Dec-15 01:32N 46°57' E 032°00'0 0.0
2014-Dec-15 00:32N 46°57' E 032°00'0 0.0
2014-Dec-14 23:32N 46°57' E 032°00'0 0.0
2014-Dec-14 22:32N 46°57' E 032°00'0 0.0
2014-Dec-14 21:32N 46°57' E 032°00'0 0.0
2014-Dec-14 20:32N 46°57' E 032°00'0 0.0
2014-Dec-14 19:32N 46°57' E 032°00'0 0.0
2014-Dec-14 18:32N 46°57' E 032°00'0 0.0
2014-Dec-14 17:32N 46°57' E 032°00'0 0.0
2014-Dec-14 16:33N 46°57' E 032°00'5 5.4
2014-Dec-14 15:33N 46°52' E 031°58'9 8.9
2014-Dec-14 14:33N 46°43' E 031°56'10 9.6
2014-Dec-14 13:33N 46°36' E 031°47'  
Track history (hours):
 
Tides and Currents Weather Stations Pressure Air Temp Water Temp Dewpoint Dewpoint Depression Visibility Wind Speed Wind Dir Waves Ship Positions

Gokay K

Last reported at 2014-Dec-17 01:16 UTC. Time now 2014-Dec-23 01:34 UTC.
Position N 45°47' E 031°10'.

Length 118 m; draft 7.2 m.

Type: Cargo ship. MMSI: 271000029.

Date/timePositionNaut miles runAvg speedWind from/ knotsBaromVisibWave heightAir tempDewpointWater temp
2014-Dec-17 01:16N 45°47' E 031°10'9 9.1
2014-Dec-17 00:18N 45°56' E 031°07'19 9.4
2014-Dec-16 22:19N 46°12' E 030°55'50 7.4
2014-Dec-16 15:34N 46°40' E 031°56'9 8.6
2014-Dec-16 14:34N 46°48' E 031°53'9 8.9
2014-Dec-16 13:34N 46°55' E 032°01'2 1.7
2014-Dec-16 12:32N 46°57' E 032°00'0 0.0
2014-Dec-16 06:32N 46°57' E 032°00'0 0.0
2014-Dec-16 05:32N 46°57' E 032°00'0 0.0
2014-Dec-16 04:30N 46°57' E 032°00'0 0.0
2014-Dec-16 03:32N 46°57' E 032°00'0 0.0
2014-Dec-16 02:32N 46°57' E 032°00'0 0.0
2014-Dec-16 01:05N 46°57' E 032°00'0 0.0
2014-Dec-16 00:31N 46°57' E 032°00'0 0.0
2014-Dec-15 23:32N 46°57' E 032°00'0 0.0
2014-Dec-15 22:32N 46°57' E 032°00'0 0.0
2014-Dec-15 21:32N 46°57' E 032°00'0 0.0
2014-Dec-15 20:32N 46°57' E 032°00'0 0.0
2014-Dec-15 19:32N 46°57' E 032°00'0 0.0
2014-Dec-15 18:32N 46°57' E 032°00'0 0.0
2014-Dec-15 17:32N 46°57' E 032°00'0 0.0
2014-Dec-15 16:32N 46°57' E 032°00'0 0.0
2014-Dec-15 15:32N 46°57' E 032°00'0 0.0
2014-Dec-15 14:32N 46°57' E 032°00'0 0.0
2014-Dec-15 13:32N 46°57' E 032°00'0 0.0
2014-Dec-15 12:32N 46°57' E 032°00'0 0.0
2014-Dec-15 11:32N 46°57' E 032°00'0 0.0
2014-Dec-15 10:32N 46°57' E 032°00'0 0.0
2014-Dec-15 09:32N 46°57' E 032°00'0 0.0
2014-Dec-15 08:32N 46°57' E 032°00'0 0.0
2014-Dec-15 07:32N 46°57' E 032°00'0 0.0
2014-Dec-15 06:32N 46°57' E 032°00'0 0.0
2014-Dec-15 05:32N 46°57' E 032°00'0 0.0
2014-Dec-15 04:32N 46°57' E 032°00'0 0.0
2014-Dec-15 03:32N 46°57' E 032°00'0 0.0
2014-Dec-15 02:32N 46°57' E 032°00'0 0.0
2014-Dec-15 01:32N 46°57' E 032°00'0 0.0
2014-Dec-15 00:32N 46°57' E 032°00'0 0.0
2014-Dec-14 23:32N 46°57' E 032°00'0 0.0
2014-Dec-14 22:32N 46°57' E 032°00'0 0.0
2014-Dec-14 21:32N 46°57' E 032°00'0 0.0
2014-Dec-14 20:32N 46°57' E 032°00'0 0.0
2014-Dec-14 19:32N 46°57' E 032°00'0 0.0
2014-Dec-14 18:32N 46°57' E 032°00'0 0.0
2014-Dec-14 17:32N 46°57' E 032°00'0 0.0
2014-Dec-14 16:33N 46°57' E 032°00'5 5.4
2014-Dec-14 15:33N 46°52' E 031°58'9 8.9
2014-Dec-14 14:33N 46°43' E 031°56'10 9.6
2014-Dec-14 13:33N 46°36' E 031°47'  

Dump ship's entire track history